Terminal Aerodrome Forecast
Issued by NWS Blacksburg, VA

Home | Current Version | Previous Version | Text Only | Print | Product List | Glossary On
Versions: 1 2 3 4 5 6 7 8 9 10 11 12 13 14 15 16 17
000
FTUS41 KRNK 041126
TAFBLF
TAF
KBLF 041126Z 0412/0512 VRB04KT P6SM OVC100
     FM041900 15009KT 6SM -RA BR OVC035
      TEMPO 0420/0421 4SM -RA BR OVC025
     FM050200 16007KT 2SM -RA BR OVC015
     FM050700 20005KT 5SM -RA BR OVC015
     FM050900 27008KT 5SM BR OVC007=

USA.gov is the U.S. government's official web portal to all federal, state and local government web resources and services.